createdAt,value
2023-03-26T00:01:38.740Z,11.72
2023-03-26T00:04:06.923Z,11.71
2023-03-26T00:06:38.945Z,11.73
2023-03-26T00:09:08.123Z,11.72
2023-03-26T00:11:34.899Z,11.70
2023-03-26T00:14:02.678Z,11.71
2023-03-26T00:16:31.567Z,11.71
2023-03-26T00:18:59.716Z,11.70
2023-03-26T00:21:28.895Z,11.67
2023-03-26T00:24:11.786Z,11.66
2023-03-26T00:26:38.859Z,11.64
2023-03-26T00:29:06.768Z,11.69
2023-03-26T00:31:33.291Z,11.72
2023-03-26T00:34:03.064Z,11.71
2023-03-26T00:36:29.734Z,11.69
2023-03-26T00:38:56.283Z,11.68
2023-03-26T00:41:30.986Z,11.67
2023-03-26T00:43:59.762Z,11.62
2023-03-26T00:46:29.142Z,11.61
2023-03-26T00:48:58.980Z,11.58
2023-03-26T00:51:27.161Z,11.57
2023-03-26T00:53:54.018Z,11.57
2023-03-26T00:56:20.527Z,11.55
2023-03-26T00:58:50.196Z,11.54
2023-03-26T01:01:21.525Z,11.54
2023-03-26T01:04:04.724Z,11.51
2023-03-26T01:06:37.719Z,11.53
2023-03-26T01:09:18.773Z,11.51
2023-03-26T01:11:45.870Z,11.51
2023-03-26T01:14:16.724Z,11.50
2023-03-26T01:17:04.197Z,11.50
2023-03-26T01:19:45.188Z,11.52
2023-03-26T01:22:16.785Z,11.50
2023-03-26T01:24:46.096Z,11.49
2023-03-26T01:27:31.961Z,11.47
2023-03-26T01:30:12.110Z,11.47
2023-03-26T01:32:57.972Z,11.47
2023-03-26T01:35:48.501Z,11.48
2023-03-26T01:38:49.887Z,11.53
2023-03-26T01:41:41.146Z,11.48
2023-03-26T01:44:17.096Z,11.45
2023-03-26T01:46:44.716Z,11.41
2023-03-26T01:49:13.249Z,11.40
2023-03-26T01:51:42.875Z,11.41
2023-03-26T01:54:16.932Z,11.40
2023-03-26T01:56:43.316Z,11.39
2023-03-26T01:59:18.656Z,11.38
2023-03-26T02:01:48.313Z,11.42
2023-03-26T02:04:20.832Z,11.41
2023-03-26T02:07:05.742Z,11.38
2023-03-26T02:09:40.627Z,11.37
2023-03-26T02:12:08.219Z,11.38
2023-03-26T02:14:35.923Z,11.35
2023-03-26T02:17:02.753Z,11.38
2023-03-26T02:19:29.887Z,11.39
2023-03-26T02:21:59.744Z,11.34
2023-03-26T02:24:26.382Z,11.33
2023-03-26T02:26:53.351Z,11.36
2023-03-26T02:29:20.542Z,11.41
2023-03-26T02:31:51.080Z,11.45
2023-03-26T02:34:17.688Z,11.49
2023-03-26T02:36:44.191Z,11.47
2023-03-26T02:39:12.009Z,11.48
2023-03-26T02:41:38.921Z,11.43
2023-03-26T02:44:05.848Z,11.47
2023-03-26T02:46:33.777Z,11.50
2023-03-26T02:49:00.247Z,11.52
2023-03-26T02:51:27.322Z,11.49
2023-03-26T02:53:54.765Z,11.50
2023-03-26T02:56:21.698Z,11.47
2023-03-26T02:58:48.405Z,11.44
2023-03-26T03:01:18.340Z,11.43
2023-03-26T03:03:47.293Z,11.41
2023-03-26T03:06:17.134Z,11.38
2023-03-26T03:08:46.042Z,11.38
2023-03-26T03:11:18.365Z,11.34
2023-03-26T03:13:45.912Z,11.35
2023-03-26T03:16:12.525Z,11.36
2023-03-26T03:18:39.224Z,11.37
2023-03-26T03:21:06.547Z,11.38
2023-03-26T03:23:33.316Z,11.36
2023-03-26T03:25:59.826Z,11.30
2023-03-26T03:28:26.683Z,11.26
2023-03-26T03:30:53.285Z,11.25
2023-03-26T03:33:20.706Z,11.29
2023-03-26T03:35:50.701Z,11.30
2023-03-26T03:38:17.802Z,11.32
2023-03-26T03:40:44.874Z,11.32
2023-03-26T03:43:11.556Z,11.32
2023-03-26T03:45:38.039Z,11.32
2023-03-26T03:48:04.903Z,11.33
2023-03-26T03:50:34.285Z,11.32
2023-03-26T03:53:02.953Z,11.33
2023-03-26T03:55:30.051Z,11.32
2023-03-26T03:57:58.325Z,11.29
2023-03-26T04:00:24.904Z,11.24
2023-03-26T04:02:54.312Z,11.22
2023-03-26T04:05:21.290Z,11.20
2023-03-26T04:07:47.808Z,11.20
2023-03-26T04:10:16.248Z,11.19
2023-03-26T04:12:42.738Z,11.17
2023-03-26T04:15:09.528Z,11.18
2023-03-26T04:17:42.773Z,11.18
2023-03-26T04:20:15.827Z,11.17
2023-03-26T04:22:43.641Z,11.15
2023-03-26T04:25:11.702Z,11.16
2023-03-26T04:27:41.573Z,11.19
2023-03-26T04:30:14.517Z,11.21
2023-03-26T04:32:42.942Z,11.19
2023-03-26T04:35:14.294Z,11.20
2023-03-26T04:37:42.143Z,11.14
2023-03-26T04:40:14.346Z,11.15
2023-03-26T04:42:46.364Z,11.17
2023-03-26T04:45:17.977Z,11.19
2023-03-26T04:47:46.562Z,11.19
2023-03-26T04:50:13.463Z,11.19
2023-03-26T04:52:41.297Z,11.20
2023-03-26T04:55:25.691Z,11.20
2023-03-26T04:57:57.089Z,11.19
2023-03-26T05:00:23.839Z,11.19
2023-03-26T05:02:50.570Z,11.19
2023-03-26T05:05:17.824Z,11.19
2023-03-26T05:07:44.336Z,11.22
2023-03-26T05:10:15.164Z,11.17
2023-03-26T05:12:41.892Z,11.14
2023-03-26T05:15:10.816Z,11.19
2023-03-26T05:17:41.811Z,11.21
2023-03-26T05:20:20.833Z,11.25
2023-03-26T05:22:49.148Z,11.24
2023-03-26T05:25:17.275Z,11.20
2023-03-26T05:27:44.232Z,11.16
2023-03-26T05:30:14.857Z,11.15
2023-03-26T05:32:41.722Z,11.17
2023-03-26T05:35:09.361Z,11.15
2023-03-26T05:37:37.718Z,11.15
2023-03-26T05:40:11.410Z,11.13
2023-03-26T05:42:39.337Z,11.13
2023-03-26T05:45:08.266Z,11.09
2023-03-26T05:47:35.150Z,11.07
2023-03-26T05:50:02.017Z,11.09
2023-03-26T05:52:28.807Z,11.10
2023-03-26T05:54:55.332Z,11.08
2023-03-26T05:57:23.891Z,11.09
2023-03-26T05:59:50.782Z,11.09
2023-03-26T06:02:17.299Z,11.07
2023-03-26T06:04:45.954Z,11.07
2023-03-26T06:07:12.790Z,11.07
2023-03-26T06:09:40.094Z,11.08
2023-03-26T06:12:08.214Z,11.07
2023-03-26T06:14:35.417Z,11.08
2023-03-26T06:17:02.235Z,11.09
2023-03-26T06:19:28.943Z,11.09
2023-03-26T06:21:55.630Z,11.12
2023-03-26T06:24:22.109Z,11.14
2023-03-26T06:26:48.685Z,11.12
2023-03-26T06:29:16.031Z,11.11
2023-03-26T06:31:42.602Z,11.07
2023-03-26T06:34:09.273Z,11.06
2023-03-26T06:36:35.816Z,11.02
2023-03-26T06:39:07.876Z,11.02
2023-03-26T06:41:35.322Z,11.00
2023-03-26T06:44:01.908Z,11.03
2023-03-26T06:46:28.444Z,11.04
2023-03-26T06:48:54.959Z,11.04
2023-03-26T06:51:21.466Z,11.04
2023-03-26T06:53:48.037Z,11.04
2023-03-26T06:56:14.585Z,11.04
2023-03-26T06:58:41.291Z,11.03
2023-03-26T07:01:07.812Z,11.03
2023-03-26T07:03:34.394Z,11.03
2023-03-26T07:06:00.902Z,11.03
2023-03-26T07:08:27.482Z,11.02
2023-03-26T07:10:54.217Z,11.03
2023-03-26T07:13:20.953Z,11.05
2023-03-26T07:15:49.059Z,11.05
2023-03-26T07:18:15.623Z,11.08
2023-03-26T07:20:43.767Z,11.08
2023-03-26T07:23:11.938Z,11.07
2023-03-26T07:25:38.845Z,11.05
2023-03-26T07:28:29.772Z,11.04
2023-03-26T07:31:20.730Z,11.04
2023-03-26T07:34:05.618Z,11.03
2023-03-26T07:36:53.733Z,11.05
2023-03-26T07:39:43.532Z,11.05
2023-03-26T07:42:51.709Z,11.10
2023-03-26T07:45:43.463Z,11.16
2023-03-26T07:48:40.754Z,11.23
2023-03-26T07:51:08.139Z,11.27
2023-03-26T07:53:35.016Z,11.31
2023-03-26T07:56:17.781Z,11.35
2023-03-26T07:58:50.018Z,11.31
2023-03-26T08:01:45.384Z,11.30
2023-03-26T08:04:23.772Z,11.29
2023-03-26T08:07:15.995Z,11.28
2023-03-26T08:10:05.656Z,11.26
2023-03-26T08:12:51.048Z,11.26
2023-03-26T08:15:38.060Z,11.24
2023-03-26T08:18:27.338Z,11.24
2023-03-26T08:21:00.884Z,11.23
2023-03-26T08:23:50.860Z,11.24
2023-03-26T08:26:45.429Z,11.22
2023-03-26T08:29:36.612Z,11.25
2023-03-26T08:32:05.263Z,11.25
2023-03-26T08:34:31.802Z,11.27
2023-03-26T08:36:58.294Z,11.28
2023-03-26T08:39:24.974Z,11.30
2023-03-26T08:42:00.499Z,11.30
2023-03-26T08:44:57.945Z,11.29
2023-03-26T08:47:42.688Z,11.28
2023-03-26T08:50:30.423Z,11.28
2023-03-26T08:53:21.685Z,11.29
2023-03-26T08:56:08.743Z,11.28
2023-03-26T08:59:03.039Z,11.28
2023-03-26T09:01:54.084Z,11.29
2023-03-26T09:04:58.823Z,11.29
2023-03-26T09:07:28.058Z,11.30
2023-03-26T09:10:14.496Z,11.31
2023-03-26T09:13:05.697Z,11.33
2023-03-26T09:15:37.005Z,11.35
2023-03-26T09:18:12.433Z,11.35
2023-03-26T09:20:54.096Z,11.36
2023-03-26T09:23:52.672Z,11.36
2023-03-26T09:26:25.339Z,11.38
2023-03-26T09:29:17.583Z,11.40
2023-03-26T09:32:18.204Z,11.40
2023-03-26T09:34:50.792Z,11.42
2023-03-26T09:37:56.855Z,11.43
2023-03-26T09:40:53.288Z,11.47
2023-03-26T09:43:32.023Z,11.48
2023-03-26T09:46:26.178Z,11.48
2023-03-26T09:49:11.828Z,11.49
2023-03-26T09:52:07.073Z,11.50
2023-03-26T09:54:48.259Z,11.47
2023-03-26T09:58:08.891Z,11.47
2023-03-26T10:00:41.249Z,11.47
2023-03-26T10:03:26.875Z,11.48
2023-03-26T10:05:59.494Z,11.46
2023-03-26T10:08:45.859Z,11.46
2023-03-26T10:11:47.774Z,11.45
2023-03-26T10:14:14.223Z,11.47
2023-03-26T10:16:55.619Z,11.46
2023-03-26T10:19:47.541Z,11.45
2023-03-26T10:22:31.228Z,11.43
2023-03-26T10:25:17.581Z,11.43
2023-03-26T10:27:52.554Z,11.43
2023-03-26T10:30:45.349Z,11.46
2023-03-26T10:33:35.295Z,11.48
2023-03-26T10:36:19.626Z,11.50
2023-03-26T10:39:35.927Z,11.54
2023-03-26T10:42:20.620Z,11.58
2023-03-26T10:44:59.103Z,11.59
2023-03-26T10:47:40.344Z,11.59
2023-03-26T10:50:36.978Z,11.63
2023-03-26T10:53:23.347Z,11.65
2023-03-26T10:55:58.391Z,11.66
2023-03-26T10:58:29.537Z,11.66
2023-03-26T11:01:24.102Z,11.63
2023-03-26T11:03:54.276Z,11.62
2023-03-26T11:06:36.257Z,11.64
2023-03-26T11:09:25.263Z,11.64
2023-03-26T11:11:51.725Z,11.63
2023-03-26T11:14:34.460Z,11.61
2023-03-26T11:17:14.566Z,11.60
2023-03-26T11:20:05.702Z,11.60
2023-03-26T11:22:53.468Z,11.59
2023-03-26T11:25:43.709Z,11.60
2023-03-26T11:29:03.424Z,11.59
2023-03-26T11:31:57.135Z,11.58
2023-03-26T11:34:31.230Z,11.58
2023-03-26T11:36:58.919Z,11.55
2023-03-26T11:39:35.501Z,11.54
2023-03-26T11:42:11.278Z,11.56
2023-03-26T11:44:54.377Z,11.54
2023-03-26T11:47:28.891Z,11.53
2023-03-26T11:49:59.444Z,11.52
2023-03-26T11:52:26.997Z,11.54
2023-03-26T11:54:54.143Z,11.52
2023-03-26T11:57:26.300Z,11.55
2023-03-26T12:00:17.626Z,11.55
2023-03-26T12:02:46.164Z,11.54
2023-03-26T12:05:18.533Z,11.54
2023-03-26T12:07:59.454Z,11.48
2023-03-26T12:10:42.855Z,11.47
2023-03-26T12:13:34.969Z,11.49
2023-03-26T12:16:09.084Z,11.47
2023-03-26T12:18:36.494Z,11.40
2023-03-26T12:21:12.659Z,11.39
2023-03-26T12:23:51.097Z,11.41
2023-03-26T12:26:20.793Z,11.40
2023-03-26T12:28:50.000Z,11.40
2023-03-26T12:31:19.164Z,11.43
2023-03-26T12:34:04.265Z,11.46
2023-03-26T12:36:33.367Z,11.47
2023-03-26T12:39:17.073Z,11.46
2023-03-26T12:44:47.373Z,11.45
2023-03-26T12:44:59.121Z,11.41
2023-03-26T12:47:58.312Z,11.38
2023-03-26T12:50:34.455Z,11.37
2023-03-26T12:53:19.134Z,11.37
2023-03-26T12:55:54.526Z,11.36
2023-03-26T12:58:41.086Z,11.35
2023-03-26T13:01:18.518Z,11.41
2023-03-26T13:04:07.091Z,11.40
2023-03-26T13:07:00.780Z,11.37
2023-03-26T13:09:31.803Z,11.37
2023-03-26T13:12:01.040Z,11.37
2023-03-26T13:14:54.562Z,11.38
2023-03-26T13:17:33.016Z,11.38
2023-03-26T13:20:13.193Z,11.39
2023-03-26T13:22:42.489Z,11.41
2023-03-26T13:25:24.090Z,11.42
2023-03-26T13:28:06.957Z,11.42
2023-03-26T13:30:51.432Z,11.43
2023-03-26T13:33:28.459Z,11.46
2023-03-26T13:36:26.364Z,11.50
2023-03-26T13:39:17.758Z,11.52
2023-03-26T13:42:09.816Z,11.53
2023-03-26T13:45:20.792Z,11.51
2023-03-26T13:47:50.791Z,11.49
2023-03-26T13:50:37.265Z,11.48
2023-03-26T13:53:18.360Z,11.49
2023-03-26T13:55:55.799Z,11.50
2023-03-26T13:58:34.636Z,11.47
2023-03-26T14:01:09.977Z,11.47
2023-03-26T14:04:07.777Z,11.44
2023-03-26T14:06:57.953Z,11.44
2023-03-26T14:09:33.563Z,11.43
2023-03-26T14:12:28.837Z,11.43
2023-03-26T14:15:01.706Z,11.43
2023-03-26T14:17:38.532Z,11.45
2023-03-26T14:20:17.470Z,11.45
2023-03-26T14:23:18.197Z,11.43
2023-03-26T14:25:47.626Z,11.44
2023-03-26T14:28:58.347Z,11.42
2023-03-26T14:31:32.363Z,11.42
2023-03-26T14:34:30.063Z,11.41
2023-03-26T14:37:18.518Z,11.42
2023-03-26T14:40:21.590Z,11.43
2023-03-26T14:43:09.531Z,11.42
2023-03-26T14:46:13.242Z,11.39
2023-03-26T14:49:05.354Z,11.40
2023-03-26T14:51:53.366Z,11.44
2023-03-26T14:54:25.578Z,11.43
2023-03-26T14:56:58.715Z,11.43
2023-03-26T14:59:31.378Z,11.41
2023-03-26T15:02:23.079Z,11.40
2023-03-26T15:04:49.612Z,11.39
2023-03-26T15:07:51.975Z,11.39
2023-03-26T15:10:57.880Z,11.39
2023-03-26T15:13:52.416Z,11.38
2023-03-26T15:16:45.451Z,11.38
2023-03-26T15:19:24.473Z,11.38
2023-03-26T15:22:06.046Z,11.36
2023-03-26T15:24:45.350Z,11.35
2023-03-26T15:27:17.748Z,11.37
2023-03-26T15:30:21.496Z,11.36
2023-03-26T15:33:22.692Z,11.34
2023-03-26T15:36:16.934Z,11.39
2023-03-26T15:38:58.841Z,11.45
2023-03-26T15:41:50.447Z,11.49
2023-03-26T15:44:38.333Z,11.49
2023-03-26T15:47:34.962Z,11.46
2023-03-26T15:50:08.190Z,11.46
2023-03-26T15:53:09.570Z,11.48
2023-03-26T15:55:52.712Z,11.47
2023-03-26T15:58:27.260Z,11.49
2023-03-26T16:01:06.105Z,11.47
2023-03-26T16:03:44.547Z,11.46
2023-03-26T16:06:35.001Z,11.47
2023-03-26T16:09:23.173Z,11.47
2023-03-26T16:12:15.840Z,11.44
2023-03-26T16:14:48.314Z,11.41
2023-03-26T16:17:23.459Z,11.40
2023-03-26T16:19:52.945Z,11.39
2023-03-26T16:22:44.897Z,11.37
2023-03-26T16:25:26.512Z,11.36
2023-03-26T16:28:12.997Z,11.36
2023-03-26T16:30:42.121Z,11.34
2023-03-26T16:33:14.022Z,11.34
2023-03-26T16:36:02.088Z,11.35
2023-03-26T16:39:05.635Z,11.35
2023-03-26T16:41:50.108Z,11.36
2023-03-26T16:44:34.986Z,11.36
2023-03-26T16:47:15.535Z,11.39
2023-03-26T16:50:10.688Z,11.39
2023-03-26T16:53:15.633Z,11.39
2023-03-26T16:56:08.832Z,11.39
2023-03-26T16:58:46.760Z,11.37
2023-03-26T17:01:19.314Z,11.36
2023-03-26T17:03:58.855Z,11.34
2023-03-26T17:06:49.258Z,11.34
2023-03-26T17:09:44.062Z,11.33
2023-03-26T17:12:28.223Z,11.33
2023-03-26T17:15:11.944Z,11.34
2023-03-26T17:17:49.628Z,11.35
2023-03-26T17:20:33.129Z,11.35
2023-03-26T17:23:51.026Z,11.35
2023-03-26T17:26:48.356Z,11.34
2023-03-26T17:29:48.083Z,11.32
2023-03-26T17:32:15.193Z,11.30
2023-03-26T17:34:52.414Z,11.28
2023-03-26T17:37:22.049Z,11.28
2023-03-26T17:39:51.515Z,11.27
2023-03-26T17:42:28.830Z,11.27
2023-03-26T17:45:03.576Z,11.27
2023-03-26T17:47:32.985Z,11.26
2023-03-26T17:50:15.858Z,11.24
2023-03-26T17:52:56.430Z,11.24
2023-03-26T17:55:30.514Z,11.26
2023-03-26T17:58:01.242Z,11.22
2023-03-26T18:00:51.047Z,11.20
2023-03-26T18:03:29.587Z,11.22
2023-03-26T18:06:06.429Z,11.22
2023-03-26T18:08:47.748Z,11.26
2023-03-26T18:11:26.343Z,11.26
2023-03-26T18:14:16.656Z,11.33
2023-03-26T18:16:53.015Z,11.32
2023-03-26T18:19:22.775Z,11.34
2023-03-26T18:21:58.150Z,11.33
2023-03-26T18:24:29.250Z,11.35
2023-03-26T18:27:02.166Z,11.37
2023-03-26T18:29:31.909Z,11.34
2023-03-26T18:32:22.081Z,11.34
2023-03-26T18:34:59.140Z,11.34
2023-03-26T18:37:31.739Z,11.33
2023-03-26T18:40:16.645Z,11.31
2023-03-26T18:42:48.869Z,11.26
2023-03-26T18:45:28.943Z,11.27
2023-03-26T18:48:23.045Z,11.26
2023-03-26T18:51:05.997Z,11.30
2023-03-26T18:53:50.117Z,11.29
2023-03-26T18:56:35.610Z,11.25
2023-03-26T18:59:05.262Z,11.22
2023-03-26T19:01:35.268Z,11.21
2023-03-26T19:04:06.032Z,11.21
2023-03-26T19:06:38.377Z,11.20
2023-03-26T19:09:16.358Z,11.21
2023-03-26T19:11:57.054Z,11.22
2023-03-26T19:14:28.640Z,11.24
2023-03-26T19:17:01.110Z,11.23
2023-03-26T19:19:36.930Z,11.21
2023-03-26T19:22:10.631Z,11.20
2023-03-26T19:24:37.475Z,11.19
2023-03-26T19:27:04.690Z,11.18
2023-03-26T19:29:36.210Z,11.17
2023-03-26T19:32:16.249Z,11.16
2023-03-26T19:34:44.890Z,11.15
2023-03-26T19:37:18.941Z,11.16
2023-03-26T19:40:07.789Z,11.16
2023-03-26T19:42:43.793Z,11.16
2023-03-26T19:45:17.968Z,11.16
2023-03-26T19:47:50.148Z,11.13
2023-03-26T19:50:28.723Z,11.15
2023-03-26T19:53:28.429Z,11.12
2023-03-26T19:55:56.625Z,11.14
2023-03-26T19:58:23.679Z,11.13
2023-03-26T20:00:50.391Z,11.13
2023-03-26T20:03:21.985Z,11.12
2023-03-26T20:05:48.603Z,11.11
2023-03-26T20:08:16.568Z,11.10
2023-03-26T20:10:43.179Z,11.10
2023-03-26T20:13:16.865Z,11.08
2023-03-26T20:16:07.469Z,11.09
2023-03-26T20:18:34.842Z,11.08
2023-03-26T20:21:01.353Z,11.09
2023-03-26T20:23:28.998Z,11.08
2023-03-26T20:25:55.946Z,11.08
2023-03-26T20:28:24.444Z,11.08
2023-03-26T20:30:54.264Z,11.07
2023-03-26T20:33:25.561Z,11.09
2023-03-26T20:35:56.765Z,11.09
2023-03-26T20:38:36.704Z,11.07
2023-03-26T20:41:07.087Z,11.05
2023-03-26T20:43:33.582Z,11.07
2023-03-26T20:46:00.633Z,11.05
2023-03-26T20:48:27.190Z,11.09
2023-03-26T20:50:54.076Z,11.10
2023-03-26T20:53:20.942Z,11.12
2023-03-26T20:55:48.280Z,11.12
2023-03-26T20:58:18.164Z,11.04
2023-03-26T21:01:00.481Z,11.11
2023-03-26T21:03:27.202Z,11.08
2023-03-26T21:05:53.768Z,11.09
2023-03-26T21:08:20.595Z,11.06
2023-03-26T21:10:47.739Z,11.06
2023-03-26T21:13:20.044Z,11.04
2023-03-26T21:15:46.942Z,11.03
2023-03-26T21:18:13.849Z,11.01
2023-03-26T21:20:41.949Z,11.00
2023-03-26T21:23:31.279Z,11.00
2023-03-26T21:26:17.310Z,10.99
2023-03-26T21:28:47.722Z,10.98
2023-03-26T21:31:20.795Z,10.97
2023-03-26T21:33:49.350Z,10.96
2023-03-26T21:36:18.108Z,10.95
2023-03-26T21:38:45.535Z,10.94
2023-03-26T21:41:24.350Z,10.94
2023-03-26T21:43:51.472Z,10.94
2023-03-26T21:46:18.750Z,10.92
2023-03-26T21:48:45.688Z,10.91
2023-03-26T21:51:14.791Z,10.88
2023-03-26T21:53:42.984Z,10.89
2023-03-26T21:56:33.988Z,10.91
2023-03-26T21:59:23.687Z,10.93
2023-03-26T22:02:14.934Z,10.92
2023-03-26T22:04:56.415Z,10.90
2023-03-26T22:07:34.104Z,10.89
2023-03-26T22:10:00.605Z,10.86
2023-03-26T22:12:27.084Z,10.86
2023-03-26T22:14:53.550Z,10.87
2023-03-26T22:17:20.080Z,10.85
2023-03-26T22:19:46.563Z,10.85
2023-03-26T22:22:13.057Z,10.85
2023-03-26T22:24:39.526Z,10.86
2023-03-26T22:27:07.806Z,10.86
2023-03-26T22:29:34.310Z,10.85
2023-03-26T22:32:00.883Z,10.85
2023-03-26T22:34:27.391Z,10.84
2023-03-26T22:36:53.908Z,10.83
2023-03-26T22:39:20.410Z,10.83
2023-03-26T22:41:46.906Z,10.82
2023-03-26T22:44:20.302Z,10.82
2023-03-26T22:46:49.398Z,10.83
2023-03-26T22:49:16.787Z,10.78
2023-03-26T22:51:43.574Z,10.80
2023-03-26T22:54:10.310Z,10.81
2023-03-26T22:56:37.261Z,10.79
2023-03-26T22:59:03.964Z,10.80
2023-03-26T23:01:30.582Z,10.79
2023-03-26T23:03:57.925Z,10.81
2023-03-26T23:06:25.108Z,10.80
2023-03-26T23:08:51.705Z,10.80
2023-03-26T23:11:20.374Z,10.79
2023-03-26T23:13:47.902Z,10.77
2023-03-26T23:16:16.173Z,10.77
2023-03-26T23:18:43.936Z,10.76
2023-03-26T23:21:19.547Z,10.77
2023-03-26T23:23:47.501Z,10.77
2023-03-26T23:26:14.926Z,10.78
2023-03-26T23:28:41.763Z,10.77
2023-03-26T23:31:10.161Z,10.78
2023-03-26T23:33:38.997Z,10.78
2023-03-26T23:36:10.779Z,10.80
2023-03-26T23:38:44.040Z,10.83
2023-03-26T23:41:15.118Z,10.82
2023-03-26T23:43:53.768Z,10.80
2023-03-26T23:46:26.034Z,10.80
2023-03-26T23:48:53.004Z,10.80
2023-03-26T23:51:20.955Z,10.80
2023-03-26T23:53:49.231Z,10.79
2023-03-26T23:56:16.294Z,10.75
2023-03-26T23:58:42.995Z,10.75
